Time;durP1;ratioP1;P1;durP2;ratioP2;P2;SDS_P1;SDS_P2;PMS_P1;PMS_P2;Temp;Humidity;BMP_temperature;BMP_pressure;BME280_temperature;BME280_humidity;BME280_pressure;Samples;Min_cycle;Max_cycle;Signal;HPM_P1;HPM_P2
2022/08/17 00:00:47;;;;;;;4.93;1.73;;;;;;;;;;5026156;28;20041;-76
2022/08/17 00:03:16;;;;;;;6.28;1.80;;;;;;;;;;5025903;28;20046;-76
2022/08/17 00:05:46;;;;;;;5.40;2.10;;;;;;;;;;5025833;28;20511;-76
2022/08/17 00:08:13;;;;;;;4.47;1.80;;;;;;;;;;5025303;28;20026;-76
2022/08/17 00:10:41;;;;;;;5.25;1.77;;;;;;;;;;5025674;28;20029;-76
2022/08/17 00:13:16;;;;;;;4.43;1.60;;;;;;;;;;5025759;28;20036;-75
2022/08/17 00:15:42;;;;;;;5.05;1.70;;;;;;;;;;5025954;28;20071;-76
2022/08/17 00:18:08;;;;;;;6.40;2.10;;;;;;;;;;5025628;28;20029;-74
2022/08/17 00:20:34;;;;;;;3.15;1.80;;;;;;;;;;5025699;28;20030;-76
2022/08/17 00:23:14;;;;;;;5.15;1.80;;;;;;;;;;5025413;28;20060;-75
2022/08/17 00:25:41;;;;;;;4.32;1.90;;;;;;;;;;5025578;28;20025;-76
2022/08/17 00:28:07;;;;;;;6.28;2.13;;;;;;;;;;5025895;28;20069;-76
2022/08/17 00:30:34;;;;;;;5.35;2.05;;;;;;;;;;5028905;28;20109;-76
2022/08/17 00:33:00;;;;;;;6.38;2.03;;;;;;;;;;5029054;28;20032;-75
2022/08/17 00:35:26;;;;;;;3.53;1.90;;;;;;;;;;5028763;28;20038;-76
2022/08/17 00:37:52;;;;;;;3.50;1.80;;;;;;;;;;5028737;28;20041;-74
2022/08/17 00:40:19;;;;;;;5.07;1.80;;;;;;;;;;5028919;28;20918;-74
2022/08/17 00:42:45;;;;;;;4.35;2.00;;;;;;;;;;5028863;28;20171;-76
2022/08/17 00:45:14;;;;;;;4.63;1.90;;;;;;;;;;5028630;28;20033;-76
2022/08/17 00:47:40;;;;;;;4.05;1.90;;;;;;;;;;5028371;28;20521;-75
2022/08/17 00:50:08;;;;;;;6.57;2.05;;;;;;;;;;5028683;28;20037;-76
2022/08/17 00:52:40;;;;;;;3.63;1.70;;;;;;;;;;5028376;28;20113;-75
2022/08/17 00:55:07;;;;;;;5.78;2.30;;;;;;;;;;5028756;28;20034;-76
2022/08/17 00:57:41;;;;;;;6.13;1.88;;;;;;;;;;5028511;28;20032;-76
2022/08/17 01:00:14;;;;;;;3.85;2.10;;;;;;;;;;5028313;28;20504;-76
2022/08/17 01:02:44;;;;;;;4.00;1.80;;;;;;;;;;5028438;28;20030;-76
2022/08/17 01:05:16;;;;;;;4.90;1.92;;;;;;;;;;5028010;28;20056;-76
2022/08/17 01:07:43;;;;;;;6.00;1.77;;;;;;;;;;5027994;28;20461;-75
2022/08/17 01:10:11;;;;;;;3.88;1.70;;;;;;;;;;5028339;28;20516;-75
2022/08/17 01:12:36;;;;;;;3.05;1.38;;;;;;;;;;5028454;28;20030;-76
2022/08/17 01:15:04;;;;;;;3.00;1.30;;;;;;;;;;5028296;28;20029;-76
2022/08/17 01:17:30;;;;;;;4.95;1.30;;;;;;;;;;5028244;28;20057;-77
2022/08/17 01:19:55;;;;;;;3.55;1.50;;;;;;;;;;5027900;28;20071;-76
2022/08/17 01:22:25;;;;;;;3.03;1.40;;;;;;;;;;5027837;28;20500;-76
2022/08/17 01:24:59;;;;;;;2.88;1.40;;;;;;;;;;5028166;28;20036;-76
2022/08/17 01:27:26;;;;;;;2.47;1.20;;;;;;;;;;5028128;28;20040;-76
2022/08/17 01:29:57;;;;;;;3.40;1.40;;;;;;;;;;5028004;28;20025;-75
2022/08/17 01:32:23;;;;;;;3.55;1.20;;;;;;;;;;5028062;28;20101;-77
2022/08/17 01:34:49;;;;;;;2.22;1.30;;;;;;;;;;5010125;28;20030;-76
2022/08/17 01:37:16;;;;;;;2.65;1.25;;;;;;;;;;5027495;28;20025;-76
2022/08/17 01:39:47;;;;;;;5.00;1.25;;;;;;;;;;5027615;28;20665;-77
2022/08/17 01:42:34;;;;;;;2.92;1.30;;;;;;;;;;5027986;28;20029;-78
2022/08/17 01:45:12;;;;;;;4.75;1.40;;;;;;;;;;5027900;28;20056;-76
2022/08/17 01:47:37;;;;;;;5.78;1.60;;;;;;;;;;5027882;28;20029;-76
2022/08/17 01:50:14;;;;;;;4.97;1.42;;;;;;;;;;5027622;28;20044;-75
2022/08/17 01:52:41;;;;;;;2.63;1.45;;;;;;;;;;5027297;28;20018;-75
2022/08/17 01:55:08;;;;;;;2.88;1.40;;;;;;;;;;5027409;28;20504;-76
2022/08/17 01:57:34;;;;;;;2.97;1.67;;;;;;;;;;5027674;28;20036;-75
2022/08/17 01:59:59;;;;;;;3.00;1.52;;;;;;;;;;5027534;28;20108;-76
2022/08/17 02:02:25;;;;;;;4.10;1.60;;;;;;;;;;5027588;28;20034;-76
2022/08/17 02:04:50;;;;;;;3.50;1.50;;;;;;;;;;5027280;28;20045;-77
2022/08/17 02:07:16;;;;;;;2.53;1.35;;;;;;;;;;5027467;28;20485;-77
2022/08/17 02:09:42;;;;;;;4.43;1.67;;;;;;;;;;5027355;28;20061;-77
2022/08/17 02:12:08;;;;;;;3.38;1.60;;;;;;;;;;5027312;28;20076;-76
2022/08/17 02:14:34;;;;;;;3.35;1.58;;;;;;;;;;5009704;28;20445;-76
2022/08/17 02:16:59;;;;;;;4.78;1.80;;;;;;;;;;5027500;28;20029;-78
2022/08/17 02:19:24;;;;;;;3.75;1.80;;;;;;;;;;5027718;28;20602;-77
2022/08/17 02:21:52;;;;;;;3.20;1.80;;;;;;;;;;5026860;28;20465;-76
2022/08/17 02:24:24;;;;;;;3.53;1.60;;;;;;;;;;5027348;28;20040;-77
2022/08/17 02:26:49;;;;;;;3.90;1.80;;;;;;;;;;5027175;28;20073;-77
2022/08/17 02:29:15;;;;;;;5.90;1.90;;;;;;;;;;5026971;28;20021;-77
2022/08/17 02:31:43;;;;;;;3.72;1.80;;;;;;;;;;5027164;28;20022;-77
2022/08/17 02:34:08;;;;;;;6.57;1.85;;;;;;;;;;5027011;28;20082;-75
2022/08/17 02:36:34;;;;;;;3.75;1.70;;;;;;;;;;5026635;28;20037;-78
2022/08/17 02:39:03;;;;;;;3.83;1.80;;;;;;;;;;5027001;28;20401;-77
2022/08/17 02:41:29;;;;;;;4.50;1.80;;;;;;;;;;5026987;28;20030;-77
2022/08/17 02:43:54;;;;;;;4.80;1.77;;;;;;;;;;5026959;28;20081;-76
2022/08/17 02:46:20;;;;;;;4.32;1.95;;;;;;;;;;5026912;28;20036;-78
2022/08/17 02:48:46;;;;;;;5.20;2.10;;;;;;;;;;5026398;28;20029;-77
2022/08/17 02:51:11;;;;;;;4.38;2.08;;;;;;;;;;5026210;28;20163;-78
2022/08/17 02:53:36;;;;;;;6.25;2.20;;;;;;;;;;5026556;28;20117;-78
2022/08/17 02:56:03;;;;;;;3.30;1.85;;;;;;;;;;5026932;28;20025;-77
2022/08/17 02:58:28;;;;;;;5.78;1.90;;;;;;;;;;5026580;28;20030;-78
2022/08/17 03:00:53;;;;;;;3.45;1.75;;;;;;;;;;5026622;28;20028;-78
2022/08/17 03:03:19;;;;;;;4.95;2.00;;;;;;;;;;5026391;28;20426;-79
2022/08/17 03:05:47;;;;;;;4.97;1.80;;;;;;;;;;5008702;28;20033;-79
2022/08/17 03:08:13;;;;;;;3.95;1.95;;;;;;;;;;5008555;28;20401;-79
2022/08/17 03:10:39;;;;;;;4.88;2.05;;;;;;;;;;5026413;28;20536;-79
2022/08/17 03:13:05;;;;;;;4.68;1.83;;;;;;;;;;5026644;28;20143;-79
2022/08/17 03:15:32;;;;;;;7.15;2.00;;;;;;;;;;5026607;28;20021;-79
2022/08/17 03:17:59;;;;;;;5.47;2.17;;;;;;;;;;5026491;28;20037;-76
2022/08/17 03:20:26;;;;;;;5.30;2.03;;;;;;;;;;5026198;28;20032;-76
2022/08/17 03:22:54;;;;;;;7.13;1.98;;;;;;;;;;5025997;28;20026;-75
2022/08/17 03:25:24;;;;;;;4.78;1.85;;;;;;;;;;5026097;28;20039;-76
2022/08/17 03:27:49;;;;;;;3.88;1.90;;;;;;;;;;5026386;28;20034;-76
2022/08/17 03:30:15;;;;;;;3.45;1.80;;;;;;;;;;5026199;28;20031;-76
2022/08/17 03:32:46;;;;;;;5.07;2.17;;;;;;;;;;5026359;28;20034;-77
2022/08/17 03:35:13;;;;;;;;;;;;;;;;;;5009139;28;20040;-76
2022/08/17 03:37:38;;;;;;;3.88;2.00;;;;;;;;;;5025831;28;20308;-77
2022/08/17 03:40:05;;;;;;;4.25;1.75;;;;;;;;;;5026085;28;20477;-75
2022/08/17 03:42:30;;;;;;;4.25;1.90;;;;;;;;;;5025998;28;20022;-76
2022/08/17 03:44:56;;;;;;;3.70;1.65;;;;;;;;;;5026131;28;20070;-76
2022/08/17 03:58:22;;;;;;;4.22;1.80;;;;;;;;;;5026175;28;20508;-75
2022/08/17 04:00:49;;;;;;;5.82;1.80;;;;;;;;;;5025752;28;20026;-76
2022/08/17 04:03:16;;;;;;;5.88;1.83;;;;;;;;;;5026562;28;20032;-75
2022/08/17 04:05:41;;;;;;;4.45;1.67;;;;;;;;;;5011536;28;20120;-76
2022/08/17 04:08:07;;;;;;;4.15;1.80;;;;;;;;;;5029100;28;20132;-77
2022/08/17 04:10:34;;;;;;;4.38;1.80;;;;;;;;;;5029292;28;20112;-76
2022/08/17 04:13:00;;;;;;;4.22;1.88;;;;;;;;;;5029158;28;20402;-75
2022/08/17 04:15:26;;;;;;;5.95;1.70;;;;;;;;;;5029234;28;20038;-76
2022/08/17 04:17:52;;;;;;;3.58;1.67;;;;;;;;;;5029070;28;20059;-76
2022/08/17 04:20:19;;;;;;;2.65;1.30;;;;;;;;;;5028979;28;20400;-76
2022/08/17 04:23:05;;;;;;;5.65;1.90;;;;;;;;;;5028704;28;20100;-73
2022/08/17 04:25:33;;;;;;;4.72;1.77;;;;;;;;;;5028989;28;20504;-75
2022/08/17 04:28:00;;;;;;;5.13;1.70;;;;;;;;;;5011317;28;20100;-75
2022/08/17 04:30:28;;;;;;;3.88;1.60;;;;;;;;;;5028717;28;20045;-76
2022/08/17 04:32:53;;;;;;;4.10;1.52;;;;;;;;;;5028925;28;20033;-75
2022/08/17 04:35:21;;;;;;;4.40;2.05;;;;;;;;;;5028858;28;20078;-75
2022/08/17 04:37:47;;;;;;;4.50;1.88;;;;;;;;;;5028441;28;20108;-77
2022/08/17 04:43:10;;;;;;;4.70;1.75;;;;;;;;;;5029167;28;20040;-76
2022/08/17 04:45:39;;;;;;;7.63;1.80;;;;;;;;;;5028713;28;20033;-76
2022/08/17 04:48:05;;;;;;;5.57;2.10;;;;;;;;;;5028677;28;20029;-77
2022/08/17 04:50:36;;;;;;;4.95;1.80;;;;;;;;;;5010658;28;20025;-77
2022/08/17 04:53:01;;;;;;;;;;;;;;;;;;5028685;28;20538;-75
2022/08/17 04:55:27;;;;;;;4.88;1.70;;;;;;;;;;5028643;28;20396;-76
2022/08/17 04:57:52;;;;;;;6.30;2.10;;;;;;;;;;5010815;28;20017;-75
2022/08/17 05:00:18;;;;;;;4.85;1.85;;;;;;;;;;5028450;28;20024;-76
2022/08/17 05:02:48;;;;;;;3.90;1.60;;;;;;;;;;5028548;28;20014;-75
2022/08/17 05:05:22;;;;;;;5.95;1.75;;;;;;;;;;5028306;28;20081;-75
2022/08/17 05:07:51;;;;;;;6.78;1.88;;;;;;;;;;5027923;28;20526;-75
2022/08/17 05:10:16;;;;;;;4.32;1.80;;;;;;;;;;5028162;28;20573;-75
2022/08/17 05:12:42;;;;;;;5.30;2.00;;;;;;;;;;5028388;28;20030;-75
2022/08/17 05:15:15;;;;;;;5.70;1.95;;;;;;;;;;5027952;28;20127;-75
2022/08/17 05:17:43;;;;;;;6.50;1.90;;;;;;;;;;5028440;28;20033;-75
2022/08/17 05:20:09;;;;;;;4.68;1.80;;;;;;;;;;5027968;28;20029;-77
2022/08/17 05:22:35;;;;;;;7.10;2.00;;;;;;;;;;5009988;28;20053;-76
2022/08/17 05:25:00;;;;;;;6.40;2.10;;;;;;;;;;5027927;28;20068;-75
2022/08/17 05:27:26;;;;;;;5.43;1.73;;;;;;;;;;5028007;28;20090;-73
2022/08/17 05:29:51;;;;;;;4.88;1.90;;;;;;;;;;5027892;28;20044;-75
2022/08/17 05:32:21;;;;;;;6.05;1.80;;;;;;;;;;5028202;28;20029;-75
2022/08/17 05:34:46;;;;;;;5.45;1.90;;;;;;;;;;5028114;28;20033;-75
2022/08/17 05:37:12;;;;;;;4.45;1.88;;;;;;;;;;5027668;28;20056;-76
2022/08/17 05:39:37;;;;;;;5.28;1.75;;;;;;;;;;5010106;28;20037;-76
2022/08/17 05:42:03;;;;;;;4.47;1.88;;;;;;;;;;5027819;28;20590;-77
2022/08/17 05:44:28;;;;;;;5.35;2.15;;;;;;;;;;5027697;28;20021;-77
2022/08/17 05:46:56;;;;;;;8.98;2.10;;;;;;;;;;5027904;28;20034;-78
2022/08/17 05:49:26;;;;;;;8.07;2.03;;;;;;;;;;5027945;28;20108;-77
2022/08/17 05:52:08;;;;;;;6.63;1.75;;;;;;;;;;5027487;28;20515;-77
2022/08/17 05:54:58;;;;;;;4.65;1.65;;;;;;;;;;5028065;28;20063;-76
2022/08/17 05:57:51;;;;;;;6.28;2.00;;;;;;;;;;5010192;28;20539;-77
2022/08/17 06:00:24;;;;;;;3.95;1.92;;;;;;;;;;5027417;28;20033;-77
2022/08/17 06:03:17;;;;;;;4.03;2.00;;;;;;;;;;5027586;28;20021;-76
2022/08/17 06:05:53;;;;;;;6.00;2.10;;;;;;;;;;5027575;28;20512;-76
2022/08/17 06:08:24;;;;;;;6.10;1.90;;;;;;;;;;5027485;28;20414;-77
2022/08/17 06:11:29;;;;;;;5.07;1.70;;;;;;;;;;5027390;28;20523;-77
2022/08/17 06:14:08;;;;;;;5.45;2.13;;;;;;;;;;5027032;28;20124;-76
2022/08/17 06:16:37;;;;;;;6.50;1.90;;;;;;;;;;5027264;28;20061;-76
2022/08/17 06:19:12;;;;;;;4.80;2.00;;;;;;;;;;5027244;28;20469;-76
2022/08/17 06:21:42;;;;;;;7.60;1.95;;;;;;;;;;5026602;28;20645;-76
2022/08/17 06:24:20;;;;;;;;;;;;;;;;;;5027681;28;20040;-76
2022/08/17 06:26:46;;;;;;;5.18;1.75;;;;;;;;;;5026378;28;19913;-76
2022/08/17 06:29:37;;;;;;;5.53;2.13;;;;;;;;;;5027242;28;20026;-77
2022/08/17 06:32:04;;;;;;;;;;;;;;;;;;5027752;28;20061;-76
2022/08/17 06:34:30;;;;;;;6.75;2.08;;;;;;;;;;5027267;28;19920;-76
2022/08/17 06:37:14;;;;;;;4.82;1.90;;;;;;;;;;5008787;28;20493;-76
2022/08/17 06:40:16;;;;;;;8.25;2.08;;;;;;;;;;5027077;28;20446;-76
2022/08/17 06:42:56;;;;;;;4.97;1.90;;;;;;;;;;5027397;28;20425;-78
2022/08/17 06:45:33;;;;;;;8.55;2.33;;;;;;;;;;5027008;28;20030;-76
2022/08/17 06:48:11;;;;;;;7.22;2.10;;;;;;;;;;5026940;28;20037;-77
2022/08/17 06:50:41;;;;;;;5.93;2.28;;;;;;;;;;5026627;28;20033;-76
2022/08/17 06:53:39;;;;;;;5.75;1.90;;;;;;;;;;5026354;28;20030;-77
2022/08/17 06:56:07;;;;;;;4.35;2.00;;;;;;;;;;5026303;28;20041;-76
2022/08/17 06:58:34;;;;;;;3.63;2.10;;;;;;;;;;5026758;28;20091;-77
2022/08/17 07:01:08;;;;;;;7.18;2.25;;;;;;;;;;5026774;28;20087;-76
2022/08/17 07:03:39;;;;;;;6.35;2.30;;;;;;;;;;5026717;28;20045;-75
2022/08/17 07:06:28;;;;;;;7.80;2.60;;;;;;;;;;5026755;28;20037;-76
2022/08/17 07:09:12;;;;;;;6.75;2.80;;;;;;;;;;5026544;28;20088;-75
2022/08/17 07:11:49;;;;;;;5.00;2.55;;;;;;;;;;5026398;28;20022;-75
2022/08/17 07:14:39;;;;;;;6.68;2.78;;;;;;;;;;5026619;28;20036;-75
2022/08/17 07:17:11;;;;;;;7.32;2.97;;;;;;;;;;5026520;28;20034;-75
2022/08/17 07:19:39;;;;;;;6.35;2.60;;;;;;;;;;5026489;28;20029;-76
2022/08/17 07:22:16;;;;;;;7.22;2.67;;;;;;;;;;5026137;28;20036;-76
2022/08/17 07:24:56;;;;;;;5.00;2.60;;;;;;;;;;5026285;28;20049;-75
2022/08/17 07:27:30;;;;;;;6.30;2.53;;;;;;;;;;5026333;28;20040;-75
2022/08/17 07:30:04;;;;;;;6.00;2.20;;;;;;;;;;5026317;28;20018;-76
2022/08/17 07:32:46;;;;;;;6.35;2.50;;;;;;;;;;5008725;28;20033;-76
2022/08/17 07:35:38;;;;;;;7.43;2.50;;;;;;;;;;5026451;28;20014;-76
2022/08/17 07:38:23;;;;;;;7.55;2.53;;;;;;;;;;5027712;28;20072;-76
2022/08/17 07:41:01;;;;;;;8.40;2.17;;;;;;;;;;5029822;28;20086;-77
2022/08/17 07:43:30;;;;;;;6.13;2.50;;;;;;;;;;5029667;28;20024;-77
2022/08/17 07:49:01;;;;;;;7.20;2.60;;;;;;;;;;4975223;28;20035;-76
2022/08/17 07:51:48;;;;;;;6.78;2.60;;;;;;;;;;5029149;28;20068;-76
2022/08/17 07:54:14;;;;;;;5.35;2.40;;;;;;;;;;5029846;28;20041;-77
2022/08/17 07:56:48;;;;;;;5.45;2.22;;;;;;;;;;5029601;28;20034;-77
2022/08/17 07:59:18;;;;;;;3.67;2.30;;;;;;;;;;5029616;28;20065;-78
2022/08/17 08:01:57;;;;;;;5.43;2.60;;;;;;;;;;5029186;28;20025;-76
2022/08/17 08:04:33;;;;;;;4.15;2.40;;;;;;;;;;5029197;28;20049;-76
2022/08/17 08:07:01;;;;;;;6.78;2.60;;;;;;;;;;5028975;28;20061;-78
2022/08/17 08:09:28;;;;;;;4.45;2.70;;;;;;;;;;5029264;28;20117;-77
2022/08/17 08:11:53;;;;;;;6.43;2.55;;;;;;;;;;5029152;28;20061;-77
2022/08/17 08:14:31;;;;;;;5.10;2.30;;;;;;;;;;5029373;28;20060;-77
2022/08/17 08:17:00;;;;;;;5.20;2.35;;;;;;;;;;5029254;28;20025;-77
2022/08/17 08:19:28;;;;;;;7.20;2.50;;;;;;;;;;5029122;28;20037;-77
2022/08/17 08:22:11;;;;;;;6.85;2.40;;;;;;;;;;5028368;28;20032;-77
2022/08/17 08:25:04;;;;;;;6.03;2.70;;;;;;;;;;5028827;28;20033;-76
2022/08/17 08:27:44;;;;;;;5.28;2.80;;;;;;;;;;5029107;28;20105;-76
2022/08/17 08:30:20;;;;;;;5.47;2.75;;;;;;;;;;5029108;28;20025;-76
2022/08/17 08:33:02;;;;;;;7.97;2.83;;;;;;;;;;5028790;28;20021;-76
2022/08/17 08:35:43;;;;;;;7.05;2.72;;;;;;;;;;5028886;28;20025;-75
2022/08/17 08:38:14;;;;;;;4.45;2.60;;;;;;;;;;5028382;28;20101;-76
2022/08/17 08:40:48;;;;;;;4.55;2.30;;;;;;;;;;5028772;28;20030;-76
2022/08/17 08:43:16;;;;;;;6.40;2.60;;;;;;;;;;5028829;28;20041;-76
2022/08/17 08:45:56;;;;;;;7.32;2.80;;;;;;;;;;5028842;28;20183;-76
2022/08/17 08:48:58;;;;;;;8.55;2.70;;;;;;;;;;5028494;28;20023;-76
2022/08/17 08:51:48;;;;;;;8.63;2.70;;;;;;;;;;5028168;28;20108;-77
2022/08/17 08:54:13;;;;;;;7.30;2.60;;;;;;;;;;5028804;28;20434;-77
2022/08/17 08:56:50;;;;;;;4.63;2.35;;;;;;;;;;5028595;28;20767;-77
2022/08/17 08:59:34;;;;;;;4.72;2.60;;;;;;;;;;5028737;28;20018;-76
2022/08/17 09:02:15;;;;;;;5.22;2.33;;;;;;;;;;5028558;28;20082;-77
2022/08/17 09:04:46;;;;;;;7.55;2.20;;;;;;;;;;5010736;28;20061;-75
2022/08/17 09:07:47;;;;;;;6.55;2.33;;;;;;;;;;5028361;28;20038;-75
2022/08/17 09:10:21;;;;;;;;;;;;;;;;;;5029033;28;20064;-75
2022/08/17 09:13:10;;;;;;;6.05;2.47;;;;;;;;;;5027938;28;19917;-75
2022/08/17 09:15:46;;;;;;;6.13;2.22;;;;;;;;;;5028515;28;20026;-75
2022/08/17 09:18:27;;;;;;;6.90;2.42;;;;;;;;;;5028155;28;20021;-76
2022/08/17 09:21:01;;;;;;;;;;;;;;;;;;5028774;28;20516;-75
2022/08/17 09:23:38;;;;;;;5.13;2.15;;;;;;;;;;5027756;28;20292;-75
2022/08/17 09:26:23;;;;;;;7.30;2.20;;;;;;;;;;5028120;28;20044;-75
2022/08/17 09:28:59;;;;;;;5.75;2.45;;;;;;;;;;5028139;28;20025;-75
2022/08/17 09:31:36;;;;;;;9.30;2.50;;;;;;;;;;5010129;28;20435;-75
2022/08/17 09:34:10;;;;;;;7.78;2.40;;;;;;;;;;5028015;28;20033;-76
2022/08/17 09:37:07;;;;;;;6.03;2.10;;;;;;;;;;5027739;28;20104;-75
2022/08/17 09:39:41;;;;;;;7.45;2.25;;;;;;;;;;4996998;28;20034;-75
2022/08/17 09:42:18;;;;;;;4.25;1.90;;;;;;;;;;5027911;28;20029;-75
2022/08/17 09:45:19;;;;;;;5.68;2.22;;;;;;;;;;5027692;28;20033;-75
2022/08/17 09:48:08;;;;;;;6.55;1.80;;;;;;;;;;5027220;28;20546;-75
2022/08/17 09:50:46;;;;;;;4.73;1.90;;;;;;;;;;5027743;28;20029;-78
2022/08/17 09:53:12;;;;;;;6.25;2.17;;;;;;;;;;5027296;28;20268;-79
2022/08/17 09:56:05;;;;;;;6.07;1.77;;;;;;;;;;5027758;28;20033;-78
2022/08/17 09:58:46;;;;;;;7.75;2.40;;;;;;;;;;5027850;28;20423;-78
2022/08/17 10:01:38;;;;;;;6.18;2.20;;;;;;;;;;5027556;28;20045;-77
2022/08/17 10:04:34;;;;;;;5.30;2.05;;;;;;;;;;5027199;28;20094;-78
2022/08/17 10:07:05;;;;;;;6.80;2.10;;;;;;;;;;5027243;28;20030;-78
2022/08/17 10:09:36;;;;;;;6.22;1.85;;;;;;;;;;5027468;28;20806;-77
2022/08/17 10:12:19;;;;;;;6.22;1.92;;;;;;;;;;5027296;28;20449;-76
2022/08/17 10:14:59;;;;;;;6.93;2.00;;;;;;;;;;5027470;28;20507;-77
2022/08/17 10:17:41;;;;;;;5.22;1.65;;;;;;;;;;5027407;28;20029;-77
2022/08/17 10:20:28;;;;;;;5.72;1.73;;;;;;;;;;5027337;28;20030;-78
2022/08/17 10:28:37;;;;;;;6.03;1.88;;;;;;;;;;5027409;28;20040;-78
2022/08/17 10:31:04;;;;;;;6.65;1.65;;;;;;;;;;5027211;28;20036;-76
2022/08/17 10:33:43;;;;;;;5.18;1.50;;;;;;;;;;5027012;28;20602;-78
2022/08/17 10:36:23;;;;;;;3.55;1.38;;;;;;;;;;5027174;28;20031;-77
2022/08/17 10:39:31;;;;;;;4.90;1.83;;;;;;;;;;5027264;28;20032;-76
2022/08/17 10:42:13;;;;;;;4.95;1.52;;;;;;;;;;4946020;29;20452;-75
2022/08/17 10:44:55;;;;;;;4.15;1.70;;;;;;;;;;5018753;28;20033;-77
2022/08/17 10:47:23;;;;;;;5.05;1.85;;;;;;;;;;5026898;28;20438;-77
2022/08/17 10:49:54;;;;;;;3.85;1.60;;;;;;;;;;5026888;28;20028;-77
2022/08/17 10:52:25;;;;;;;7.18;1.75;;;;;;;;;;5026381;28;20101;-77
2022/08/17 10:54:50;;;;;;;9.45;1.70;;;;;;;;;;5026817;28;20052;-77
2022/08/17 10:57:36;;;;;;;4.28;1.60;;;;;;;;;;5026785;28;20492;-76
2022/08/17 11:00:16;;;;;;;4.30;1.50;;;;;;;;;;5026551;28;20098;-77
2022/08/17 11:02:50;;;;;;;5.22;1.75;;;;;;;;;;5026738;28;20037;-76
2022/08/17 11:05:37;;;;;;;6.28;1.65;;;;;;;;;;5026535;28;20045;-77
2022/08/17 11:08:28;;;;;;;5.75;1.65;;;;;;;;;;5026391;28;20033;-75
2022/08/17 11:11:52;;;;;;;5.70;1.60;;;;;;;;;;5026660;28;20112;-76
2022/08/17 11:14:28;;;;;;;3.58;1.50;;;;;;;;;;5026507;28;20084;-75
2022/08/17 11:17:28;;;;;;;4.30;1.70;;;;;;;;;;5026610;28;20610;-75
2022/08/17 11:20:11;;;;;;;4.88;1.63;;;;;;;;;;5026363;28;20040;-75
2022/08/17 11:23:11;;;;;;;3.20;1.48;;;;;;;;;;5025769;28;20037;-77
2022/08/17 11:25:40;;;;;;;4.07;1.50;;;;;;;;;;5008516;28;20041;-77
2022/08/17 11:28:14;;;;;;;4.22;1.50;;;;;;;;;;5026303;28;20047;-78
2022/08/17 11:30:55;;;;;;;5.85;1.50;;;;;;;;;;5026316;28;20025;-76
2022/08/17 11:33:33;;;;;;;6.68;1.63;;;;;;;;;;5026119;28;20029;-77
2022/08/17 11:36:28;;;;;;;3.78;1.25;;;;;;;;;;5026278;28;20105;-77
2022/08/17 11:38:56;;;;;;;4.10;1.73;;;;;;;;;;5026411;28;20032;-76
2022/08/17 11:41:47;;;;;;;5.20;1.60;;;;;;;;;;5008412;28;20071;-76
2022/08/17 11:44:36;;;;;;;2.85;1.20;;;;;;;;;;5026130;28;20390;-76
2022/08/17 11:53:04;;;;;;;3.70;1.50;;;;;;;;;;5025620;28;20091;-76
2022/08/17 11:55:35;;;;;;;3.28;1.08;;;;;;;;;;5026039;28;20040;-77
2022/08/17 11:58:22;;;;;;;2.70;1.35;;;;;;;;;;5026541;28;20029;-76
2022/08/17 12:00:54;;;;;;;2.55;1.50;;;;;;;;;;5025957;28;20556;-77
2022/08/17 12:03:32;;;;;;;2.05;1.23;;;;;;;;;;5025464;28;20086;-77
2022/08/17 12:06:23;;;;;;;4.93;1.73;;;;;;;;;;5008086;28;20025;-77
2022/08/17 12:09:04;;;;;;;3.13;1.20;;;;;;;;;;5025692;28;20046;-77
2022/08/17 12:11:45;;;;;;;5.05;1.40;;;;;;;;;;5025696;28;20029;-76
2022/08/17 12:14:16;;;;;;;5.20;1.65;;;;;;;;;;5025546;28;20539;-77
2022/08/17 12:16:43;;;;;;;4.78;1.70;;;;;;;;;;5025795;28;20029;-76
2022/08/17 12:19:18;;;;;;;4.80;1.52;;;;;;;;;;5026166;28;20037;-78
2022/08/17 12:21:56;;;;;;;4.45;1.70;;;;;;;;;;5025326;28;20022;-76
2022/08/17 12:24:31;;;;;;;5.18;1.95;;;;;;;;;;5026110;28;20041;-76
2022/08/17 12:27:03;;;;;;;3.35;1.55;;;;;;;;;;5028901;28;20029;-77
2022/08/17 12:29:30;;;;;;;6.50;2.20;;;;;;;;;;5028985;28;20384;-77
2022/08/17 12:31:57;;;;;;;3.95;1.80;;;;;;;;;;5029132;28;20107;-77
2022/08/17 12:34:36;;;;;;;4.50;2.08;;;;;;;;;;5028899;28;20178;-77
2022/08/17 12:37:11;;;;;;;4.18;1.70;;;;;;;;;;5028479;28;20041;-78
2022/08/17 12:39:38;;;;;;;7.28;2.00;;;;;;;;;;5028989;28;20050;-77
2022/08/17 12:42:03;;;;;;;4.28;1.80;;;;;;;;;;5028872;28;20488;-78
2022/08/17 12:44:32;;;;;;;3.33;1.70;;;;;;;;;;5028653;28;20025;-77
2022/08/17 12:47:06;;;;;;;5.45;1.80;;;;;;;;;;5028793;28;20109;-77
2022/08/17 12:49:34;;;;;;;5.55;1.90;;;;;;;;;;5028725;28;20049;-78
2022/08/17 12:52:29;;;;;;;3.80;1.80;;;;;;;;;;5010720;28;20037;-77
2022/08/17 12:54:58;;;;;;;5.05;1.52;;;;;;;;;;5028675;28;20033;-78
2022/08/17 12:57:38;;;;;;;3.97;1.70;;;;;;;;;;5028531;28;20629;-77
2022/08/17 13:00:16;;;;;;;5.68;1.70;;;;;;;;;;5028453;28;20413;-79
2022/08/17 13:02:52;;;;;;;4.25;1.60;;;;;;;;;;5028229;28;20668;-78
2022/08/17 13:05:26;;;;;;;2.72;1.63;;;;;;;;;;5028200;28;20059;-78
2022/08/17 13:07:54;;;;;;;4.88;1.60;;;;;;;;;;5028239;28;20057;-77
2022/08/17 13:10:25;;;;;;;4.85;1.65;;;;;;;;;;5028419;28;20105;-77
2022/08/17 13:12:51;;;;;;;6.28;1.70;;;;;;;;;;5028251;28;20089;-76
2022/08/17 13:15:40;;;;;;;5.72;1.80;;;;;;;;;;5028439;28;20065;-75
2022/08/17 13:18:35;;;;;;;5.97;1.80;;;;;;;;;;5028148;28;20467;-74
2022/08/17 13:21:00;;;;;;;5.30;1.70;;;;;;;;;;5027756;28;20116;-74
2022/08/17 13:23:28;;;;;;;3.58;1.42;;;;;;;;;;5027635;28;20469;-76
2022/08/17 13:25:56;;;;;;;4.65;1.77;;;;;;;;;;5028219;28;20033;-74
2022/08/17 13:28:27;;;;;;;5.15;1.60;;;;;;;;;;5028373;28;20025;-74
2022/08/17 13:31:31;;;;;;;3.95;1.90;;;;;;;;;;5028143;28;20025;-74
2022/08/17 13:34:23;;;;;;;5.68;1.70;;;;;;;;;;5027881;28;20118;-74
2022/08/17 13:36:51;;;;;;;7.65;2.08;;;;;;;;;;5009558;28;20033;-74
2022/08/17 13:39:23;;;;;;;5.57;1.80;;;;;;;;;;5027894;28;20053;-74
2022/08/17 13:41:51;;;;;;;3.75;1.55;;;;;;;;;;5010413;28;20038;-75
2022/08/17 13:44:39;;;;;;;4.95;1.85;;;;;;;;;;5027719;28;20029;-74
2022/08/17 13:47:15;;;;;;;3.97;1.70;;;;;;;;;;5027903;28;20036;-73
2022/08/17 13:49:41;;;;;;;2.20;1.50;;;;;;;;;;5027606;28;20037;-76
2022/08/17 13:52:31;;;;;;;5.70;1.60;;;;;;;;;;5027396;28;20041;-76
2022/08/17 13:54:58;;;;;;;3.97;1.85;;;;;;;;;;5027682;28;20151;-74
2022/08/17 13:57:24;;;;;;;10.95;2.20;;;;;;;;;;5027535;28;20401;-74
2022/08/17 14:00:04;;;;;;;5.43;1.95;;;;;;;;;;5027738;28;20038;-74
2022/08/17 14:02:30;;;;;;;4.45;2.00;;;;;;;;;;5027359;28;20424;-76
2022/08/17 14:04:56;;;;;;;4.97;1.80;;;;;;;;;;5027038;28;20049;-74
2022/08/17 14:07:27;;;;;;;5.38;1.90;;;;;;;;;;5026954;28;20041;-74
2022/08/17 14:10:12;;;;;;;;;;;;;;;;;;5027349;28;20060;-76
2022/08/17 14:12:40;;;;;;;4.88;2.10;;;;;;;;;;5027099;28;19920;-76
2022/08/17 14:15:06;;;;;;;4.05;1.88;;;;;;;;;;5027269;28;20105;-76
2022/08/17 14:17:32;;;;;;;6.15;2.10;;;;;;;;;;5027465;28;20052;-75
2022/08/17 14:19:58;;;;;;;4.72;1.90;;;;;;;;;;5027760;28;20033;-75
2022/08/17 14:22:30;;;;;;;5.55;1.80;;;;;;;;;;5026855;28;20040;-75
2022/08/17 14:24:58;;;;;;;6.57;2.15;;;;;;;;;;5026891;28;20079;-74
2022/08/17 14:27:26;;;;;;;5.82;2.03;;;;;;;;;;5027197;28;20018;-75
2022/08/17 14:29:52;;;;;;;4.38;1.80;;;;;;;;;;5027210;28;20634;-76
2022/08/17 14:32:23;;;;;;;7.78;1.90;;;;;;;;;;5027176;28;20037;-76
2022/08/17 14:34:49;;;;;;;5.80;1.67;;;;;;;;;;5027061;28;20033;-76
2022/08/17 14:37:17;;;;;;;9.93;1.90;;;;;;;;;;5026793;28;20080;-76
2022/08/17 14:39:42;;;;;;;5.60;1.70;;;;;;;;;;5026895;28;20533;-76
2022/08/17 14:42:10;;;;;;;4.55;1.85;;;;;;;;;;5027160;28;20021;-77
2022/08/17 14:44:37;;;;;;;4.57;1.85;;;;;;;;;;5026771;28;20511;-76
2022/08/17 14:47:03;;;;;;;8.30;2.10;;;;;;;;;;5026259;28;20025;-77
2022/08/17 14:49:29;;;;;;;6.30;1.67;;;;;;;;;;5009211;28;20032;-76
2022/08/17 14:51:54;;;;;;;7.63;1.75;;;;;;;;;;5026903;28;20098;-76
2022/08/17 14:54:19;;;;;;;6.28;1.70;;;;;;;;;;5009153;28;20026;-76
2022/08/17 14:56:45;;;;;;;6.45;1.95;;;;;;;;;;5027028;28;20086;-76
2022/08/17 14:59:12;;;;;;;4.57;1.80;;;;;;;;;;5026964;28;20560;-76
2022/08/17 15:01:37;;;;;;;5.30;1.80;;;;;;;;;;5026932;28;20074;-76
2022/08/17 15:04:02;;;;;;;3.10;1.60;;;;;;;;;;5026184;28;20053;-75
2022/08/17 15:06:28;;;;;;;4.82;1.90;;;;;;;;;;5026286;28;20033;-76
2022/08/17 15:08:55;;;;;;;5.97;1.80;;;;;;;;;;5026896;28;20106;-76
2022/08/17 15:11:20;;;;;;;4.43;1.50;;;;;;;;;;5026601;28;20431;-75
2022/08/17 15:13:47;;;;;;;4.78;1.90;;;;;;;;;;5026604;28;20028;-75
2022/08/17 15:16:12;;;;;;;5.13;1.77;;;;;;;;;;5026708;28;20029;-76
2022/08/17 15:18:39;;;;;;;3.00;1.48;;;;;;;;;;5009025;28;20035;-75
2022/08/17 15:21:08;;;;;;;4.72;1.63;;;;;;;;;;5026208;28;20041;-76
2022/08/17 15:23:35;;;;;;;5.07;1.50;;;;;;;;;;5026253;28;20185;-75
2022/08/17 15:26:00;;;;;;;6.20;1.63;;;;;;;;;;5008436;28;20037;-75
2022/08/17 15:28:26;;;;;;;3.72;1.48;;;;;;;;;;5026393;28;20026;-75
2022/08/17 15:30:52;;;;;;;4.57;1.77;;;;;;;;;;5026348;28;20483;-76
2022/08/17 15:33:27;;;;;;;3.33;1.60;;;;;;;;;;5026735;28;20034;-74
2022/08/17 15:35:54;;;;;;;5.05;1.70;;;;;;;;;;5026253;28;20164;-75
2022/08/17 15:38:20;;;;;;;3.17;1.50;;;;;;;;;;5025615;28;20034;-76
2022/08/17 15:40:48;;;;;;;4.57;1.65;;;;;;;;;;5026228;28;20371;-76
2022/08/17 15:43:22;;;;;;;3.22;1.52;;;;;;;;;;5026266;28;20037;-76
2022/08/17 15:45:55;;;;;;;4.68;1.65;;;;;;;;;;5026431;28;20025;-76
2022/08/17 15:48:20;;;;;;;3.42;1.38;;;;;;;;;;5026246;28;20056;-76